createdAt,value
2023-04-10T00:01:19.771Z,94.98
2023-04-10T00:03:46.576Z,96.90
2023-04-10T00:06:13.526Z,95.74
2023-04-10T00:08:40.726Z,94.33
2023-04-10T00:11:07.691Z,93.39
2023-04-10T00:13:34.708Z,96.01
2023-04-10T00:16:01.941Z,94.70
2023-04-10T00:18:28.898Z,93.25
2023-04-10T00:21:03.333Z,92.45
2023-04-10T00:23:32.775Z,91.32
2023-04-10T00:26:02.275Z,92.16
2023-04-10T00:28:29.615Z,92.49
2023-04-10T00:31:01.170Z,92.80
2023-04-10T00:33:27.889Z,91.05
2023-04-10T00:35:54.597Z,89.46
2023-04-10T00:38:21.574Z,91.70
2023-04-10T00:40:48.552Z,90.32
2023-04-10T00:43:15.575Z,89.83
2023-04-10T00:45:43.039Z,89.57
2023-04-10T00:48:09.990Z,89.95
2023-04-10T00:50:36.810Z,88.44
2023-04-10T00:53:04.102Z,88.69
2023-04-10T00:55:31.649Z,88.15
2023-04-10T00:57:58.602Z,86.95
2023-04-10T01:00:25.343Z,89.82
2023-04-10T01:02:52.512Z,86.64
2023-04-10T01:05:19.407Z,86.66
2023-04-10T01:08:40.458Z,86.01
2023-04-10T01:11:08.087Z,83.51
2023-04-10T01:13:50.735Z,84.05
2023-04-10T01:16:37.766Z,82.04
2023-04-10T01:19:23.629Z,81.17
2023-04-10T01:21:51.882Z,78.58
2023-04-10T01:24:25.103Z,79.42
2023-04-10T01:27:36.884Z,80.01
2023-04-10T01:30:05.092Z,81.51
2023-04-10T01:32:34.695Z,81.73
2023-04-10T01:35:07.032Z,82.58
2023-04-10T01:37:39.317Z,81.45
2023-04-10T01:40:09.661Z,82.29
2023-04-10T01:42:43.280Z,83.93
2023-04-10T01:45:16.616Z,82.24
2023-04-10T01:47:45.828Z,81.47
2023-04-10T01:50:12.915Z,79.58
2023-04-10T01:52:40.144Z,80.63
2023-04-10T01:55:22.936Z,82.01
2023-04-10T01:57:54.700Z,82.59
2023-04-10T02:00:23.067Z,82.05
2023-04-10T02:02:51.914Z,83.90
2023-04-10T02:05:19.538Z,82.27
2023-04-10T02:07:55.998Z,82.08
2023-04-10T02:10:26.331Z,82.13
2023-04-10T02:12:56.723Z,81.42
2023-04-10T02:15:27.178Z,80.57
2023-04-10T02:17:55.495Z,84.07
2023-04-10T02:20:23.346Z,82.75
2023-04-10T02:22:50.724Z,85.22
2023-04-10T02:25:17.642Z,88.60
2023-04-10T02:27:44.927Z,84.15
2023-04-10T02:30:11.878Z,85.66
2023-04-10T02:32:39.004Z,83.84
2023-04-10T02:35:08.279Z,84.28
2023-04-10T02:37:37.238Z,82.31
2023-04-10T02:40:04.571Z,83.43
2023-04-10T02:42:40.910Z,81.70
2023-04-10T02:45:08.789Z,85.22
2023-04-10T02:47:39.299Z,81.92
2023-04-10T02:50:06.442Z,84.17
2023-04-10T02:52:36.766Z,80.30
2023-04-10T02:55:04.726Z,80.19
2023-04-10T02:57:35.556Z,80.94
2023-04-10T03:00:04.797Z,83.12
2023-04-10T03:02:51.146Z,85.13
2023-04-10T03:05:19.599Z,85.87
2023-04-10T03:07:46.602Z,82.59
2023-04-10T03:10:13.395Z,81.26
2023-04-10T03:12:40.222Z,82.22
2023-04-10T03:15:07.768Z,80.87
2023-04-10T03:17:35.119Z,80.47
2023-04-10T03:20:02.044Z,81.34
2023-04-10T03:22:33.216Z,81.71
2023-04-10T03:25:00.357Z,81.75
2023-04-10T03:27:27.306Z,81.01
2023-04-10T03:29:54.119Z,81.74
2023-04-10T03:32:20.980Z,81.79
2023-04-10T03:34:48.557Z,80.28
2023-04-10T03:37:15.734Z,81.28
2023-04-10T03:39:42.762Z,81.38
2023-04-10T03:42:13.773Z,81.37
2023-04-10T03:44:40.974Z,80.82
2023-04-10T03:47:08.552Z,82.23
2023-04-10T03:49:35.835Z,81.53
2023-04-10T03:52:06.299Z,78.81
2023-04-10T03:54:33.093Z,83.86
2023-04-10T03:57:01.671Z,81.65
2023-04-10T03:59:37.768Z,83.12
2023-04-10T04:02:08.567Z,84.54
2023-04-10T04:04:35.590Z,85.02
2023-04-10T04:07:40.495Z,86.03
2023-04-10T04:10:33.142Z,83.72
2023-04-10T04:13:22.913Z,86.28
2023-04-10T04:16:04.780Z,85.24
2023-04-10T04:18:45.399Z,86.61
2023-04-10T04:21:28.940Z,84.62
2023-04-10T04:24:22.277Z,87.30
2023-04-10T04:27:01.361Z,85.66
2023-04-10T04:29:49.306Z,87.29
2023-04-10T04:32:25.039Z,87.00
2023-04-10T04:35:01.240Z,86.11
2023-04-10T04:37:42.857Z,85.73
2023-04-10T04:40:35.681Z,83.94
2023-04-10T04:43:15.520Z,84.03
2023-04-10T04:45:59.730Z,86.19
2023-04-10T04:48:52.075Z,85.06
2023-04-10T04:51:24.635Z,87.26
2023-04-10T04:54:02.034Z,88.64
2023-04-10T04:56:45.250Z,88.09
2023-04-10T04:59:23.668Z,90.59
2023-04-10T05:02:13.908Z,89.91
2023-04-10T05:04:47.182Z,88.17
2023-04-10T05:07:46.285Z,87.08
2023-04-10T05:10:35.404Z,90.37
2023-04-10T05:13:11.470Z,86.33
2023-04-10T05:15:55.643Z,87.70
2023-04-10T05:19:01.922Z,88.19
2023-04-10T05:21:40.990Z,89.23
2023-04-10T05:24:26.288Z,90.70
2023-04-10T05:27:11.486Z,88.85
2023-04-10T05:29:53.977Z,90.83
2023-04-10T05:32:39.474Z,87.69
2023-04-10T05:35:25.024Z,85.45
2023-04-10T05:38:06.178Z,90.43
2023-04-10T05:40:56.390Z,87.24
2023-04-10T05:43:45.626Z,89.86
2023-04-10T05:46:29.761Z,85.74
2023-04-10T05:49:16.948Z,87.61
2023-04-10T05:52:13.350Z,84.31
2023-04-10T05:55:00.807Z,84.31
2023-04-10T05:57:54.460Z,88.42
2023-04-10T06:00:30.567Z,84.42
2023-04-10T06:03:16.344Z,84.94
2023-04-10T06:05:54.245Z,83.73
2023-04-10T06:08:22.851Z,83.40
2023-04-10T06:10:49.545Z,81.63
2023-04-10T06:13:17.126Z,81.66
2023-04-10T06:15:44.585Z,82.43
2023-04-10T06:18:12.224Z,81.81
2023-04-10T06:20:39.098Z,83.99
2023-04-10T06:23:06.279Z,84.63
2023-04-10T06:25:33.670Z,85.75
2023-04-10T06:28:00.847Z,81.17
2023-04-10T06:30:27.687Z,82.16
2023-04-10T06:32:54.551Z,84.15
2023-04-10T06:35:21.930Z,82.88
2023-04-10T06:37:48.723Z,82.53
2023-04-10T06:40:16.585Z,84.87
2023-04-10T06:42:43.358Z,86.01
2023-04-10T06:45:21.302Z,82.89
2023-04-10T06:47:48.236Z,85.40
2023-04-10T06:50:15.095Z,83.68
2023-04-10T06:52:41.978Z,81.19
2023-04-10T06:55:09.202Z,85.00
2023-04-10T06:57:36.061Z,85.21
2023-04-10T07:00:03.177Z,83.07
2023-04-10T07:02:30.318Z,84.54
2023-04-10T07:04:57.133Z,85.87
2023-04-10T07:07:23.904Z,83.86
2023-04-10T07:09:51.036Z,85.00
2023-04-10T07:12:17.819Z,84.02
2023-04-10T07:14:44.494Z,84.50
2023-04-10T07:17:11.221Z,82.72
2023-04-10T07:19:38.218Z,83.94
2023-04-10T07:22:05.211Z,84.93
2023-04-10T07:24:32.793Z,83.51
2023-04-10T07:27:01.290Z,86.18
2023-04-10T07:29:28.079Z,83.07
2023-04-10T07:31:55.174Z,82.35
2023-04-10T07:34:21.971Z,84.42
2023-04-10T07:36:49.530Z,85.65
2023-04-10T07:39:16.331Z,85.37
2023-04-10T07:41:43.556Z,83.02
2023-04-10T07:44:10.674Z,85.20
2023-04-10T07:46:37.886Z,82.50
2023-04-10T07:49:06.735Z,85.98
2023-04-10T07:51:34.997Z,86.37
2023-04-10T07:54:03.495Z,87.06
2023-04-10T07:56:31.600Z,88.81
2023-04-10T07:59:01.485Z,86.62
2023-04-10T08:01:29.043Z,87.98
2023-04-10T08:04:00.215Z,86.58
2023-04-10T08:06:28.575Z,86.75
2023-04-10T08:08:55.582Z,85.14
2023-04-10T08:11:30.334Z,83.13
2023-04-10T08:13:58.704Z,83.89
2023-04-10T08:16:26.790Z,84.46
2023-04-10T08:18:54.908Z,84.55
2023-04-10T08:21:22.366Z,84.70
2023-04-10T08:23:53.712Z,82.92
2023-04-10T08:26:27.728Z,82.29
2023-04-10T08:28:59.765Z,83.85
2023-04-10T08:31:28.190Z,84.07
2023-04-10T08:33:55.798Z,85.38
2023-04-10T08:36:22.871Z,84.27
2023-04-10T08:38:49.783Z,81.89
2023-04-10T08:41:18.072Z,80.19
2023-04-10T08:43:46.362Z,81.09
2023-04-10T08:46:14.996Z,83.22
2023-04-10T08:48:58.583Z,80.22
2023-04-10T08:51:31.493Z,79.83
2023-04-10T08:54:08.724Z,76.22
2023-04-10T08:56:36.281Z,78.32
2023-04-10T08:59:03.859Z,79.89
2023-04-10T09:01:31.335Z,80.43
2023-04-10T09:03:59.465Z,81.19
2023-04-10T09:06:27.375Z,78.94
2023-04-10T09:08:54.197Z,80.92
2023-04-10T09:11:21.685Z,80.95
2023-04-10T09:13:48.830Z,80.76
2023-04-10T09:16:16.564Z,80.81
2023-04-10T09:18:48.649Z,81.41
2023-04-10T09:21:20.839Z,82.10
2023-04-10T09:23:49.613Z,81.43
2023-04-10T09:26:25.705Z,82.68
2023-04-10T09:29:04.153Z,82.79
2023-04-10T09:31:35.745Z,79.59
2023-04-10T09:34:22.727Z,78.39
2023-04-10T09:36:57.612Z,80.94
2023-04-10T09:39:34.634Z,81.44
2023-04-10T09:42:01.583Z,78.29
2023-04-10T09:44:35.402Z,78.14
2023-04-10T09:47:21.734Z,78.10
2023-04-10T09:49:53.633Z,77.39
2023-04-10T09:52:22.776Z,75.19
2023-04-10T09:54:49.585Z,76.48
2023-04-10T09:57:21.389Z,77.10
2023-04-10T09:59:50.851Z,76.22
2023-04-10T10:02:22.765Z,77.27
2023-04-10T10:04:51.029Z,75.34
2023-04-10T10:07:19.683Z,73.99
2023-04-10T10:09:48.567Z,74.50
2023-04-10T10:12:18.084Z,71.40
2023-04-10T10:14:55.734Z,76.26
2023-04-10T10:17:24.727Z,72.91
2023-04-10T10:20:03.238Z,74.02
2023-04-10T10:22:30.863Z,73.88
2023-04-10T10:25:00.144Z,73.40
2023-04-10T10:27:29.346Z,73.04
2023-04-10T10:30:02.998Z,72.18
2023-04-10T10:32:34.680Z,72.04
2023-04-10T10:35:03.522Z,73.11
2023-04-10T10:37:30.680Z,71.52
2023-04-10T10:40:26.778Z,71.70
2023-04-10T10:43:05.004Z,69.92
2023-04-10T10:45:38.250Z,70.75
2023-04-10T10:48:06.964Z,70.17
2023-04-10T10:50:54.960Z,71.44
2023-04-10T10:53:36.907Z,70.21
2023-04-10T10:56:29.767Z,70.54
2023-04-10T10:58:59.991Z,68.25
2023-04-10T11:01:27.532Z,66.93
2023-04-10T11:03:54.565Z,66.62
2023-04-10T11:06:22.562Z,67.28
2023-04-10T11:08:53.589Z,64.61
2023-04-10T11:11:23.582Z,65.66
2023-04-10T11:13:53.236Z,65.33
2023-04-10T11:16:21.324Z,65.19
2023-04-10T11:19:02.630Z,66.02
2023-04-10T11:21:41.921Z,66.36
2023-04-10T11:24:08.833Z,66.81
2023-04-10T11:26:39.721Z,65.91
2023-04-10T11:29:26.730Z,66.64
2023-04-10T11:31:58.592Z,65.29
2023-04-10T11:34:27.786Z,63.63
2023-04-10T11:36:54.967Z,66.13
2023-04-10T11:39:22.382Z,65.98
2023-04-10T11:41:50.951Z,65.12
2023-04-10T11:44:21.158Z,64.80
2023-04-10T11:46:48.174Z,65.18
2023-04-10T11:49:22.113Z,63.55
2023-04-10T11:51:50.358Z,64.52
2023-04-10T11:54:19.521Z,64.26
2023-04-10T11:56:54.951Z,63.85
2023-04-10T11:59:22.591Z,64.33
2023-04-10T12:01:54.167Z,64.76
2023-04-10T12:04:22.377Z,66.21
2023-04-10T12:06:52.038Z,64.41
2023-04-10T12:09:21.037Z,64.41
2023-04-10T12:12:09.459Z,66.34
2023-04-10T12:14:40.599Z,65.28
2023-04-10T12:17:09.509Z,62.42
2023-04-10T12:19:36.790Z,61.29
2023-04-10T12:22:03.591Z,61.12
2023-04-10T12:24:53.356Z,60.35
2023-04-10T12:27:27.798Z,60.91
2023-04-10T12:29:58.888Z,60.95
2023-04-10T12:32:27.748Z,60.32
2023-04-10T12:34:59.127Z,61.24
2023-04-10T12:37:48.932Z,62.21
2023-04-10T12:40:16.267Z,63.66
2023-04-10T12:42:43.751Z,60.38
2023-04-10T12:45:14.153Z,61.18
2023-04-10T12:47:49.171Z,62.32
2023-04-10T12:50:17.335Z,63.42
2023-04-10T12:52:45.968Z,64.15
2023-04-10T12:55:17.003Z,62.07
2023-04-10T12:57:48.724Z,61.17
2023-04-10T13:00:19.698Z,61.24
2023-04-10T13:02:48.726Z,60.31
2023-04-10T13:05:15.972Z,60.24
2023-04-10T13:07:42.918Z,66.40
2023-04-10T13:10:16.008Z,67.22
2023-04-10T13:12:44.328Z,67.31
2023-04-10T13:15:13.969Z,67.65
2023-04-10T13:17:43.160Z,69.20
2023-04-10T13:20:11.554Z,65.42
2023-04-10T13:22:38.524Z,74.13
2023-04-10T13:25:05.745Z,83.22
2023-04-10T13:27:34.064Z,85.73
2023-04-10T13:30:00.883Z,86.34
2023-04-10T13:32:27.824Z,90.95
2023-04-10T13:34:56.213Z,91.05
2023-04-10T13:37:23.439Z,89.52
2023-04-10T13:39:50.678Z,93.49
2023-04-10T13:42:17.421Z,88.20
2023-04-10T13:44:44.374Z,88.78
2023-04-10T13:47:11.324Z,86.99
2023-04-10T13:49:38.903Z,84.07
2023-04-10T13:52:06.340Z,84.31
2023-04-10T13:54:36.275Z,80.74
2023-04-10T13:57:03.147Z,80.42
2023-04-10T13:59:29.951Z,81.17
2023-04-10T14:01:56.959Z,80.88
2023-04-10T14:04:23.997Z,80.51
2023-04-10T14:06:51.965Z,80.52
2023-04-10T14:09:19.315Z,77.16
2023-04-10T14:11:46.166Z,78.50
2023-04-10T14:14:13.162Z,79.12
2023-04-10T14:16:40.352Z,76.14
2023-04-10T14:19:07.370Z,76.59
2023-04-10T14:21:34.909Z,75.46
2023-04-10T14:24:01.594Z,74.70
2023-04-10T14:26:28.491Z,74.11
2023-04-10T14:28:55.403Z,74.15
2023-04-10T14:31:22.321Z,74.27
2023-04-10T14:33:49.578Z,75.39
2023-04-10T14:36:16.498Z,73.18
2023-04-10T14:38:43.433Z,72.07
2023-04-10T14:41:10.381Z,72.47
2023-04-10T14:43:37.543Z,74.73
2023-04-10T14:46:04.397Z,74.83
2023-04-10T14:48:31.370Z,75.10
2023-04-10T14:50:59.152Z,76.83
2023-04-10T14:53:26.021Z,75.97
2023-04-10T14:55:53.060Z,76.42
2023-04-10T14:58:19.760Z,76.56
2023-04-10T15:00:47.364Z,81.44
2023-04-10T15:03:14.166Z,89.08
2023-04-10T15:05:40.918Z,92.38
2023-04-10T15:08:07.824Z,95.25
2023-04-10T15:10:34.534Z,96.95
2023-04-10T15:13:01.287Z,100.00
2023-04-10T15:15:28.074Z,100.00
2023-04-10T15:17:54.828Z,100.00
2023-04-10T15:20:21.722Z,100.00
2023-04-10T15:22:48.540Z,100.00
2023-04-10T15:25:15.378Z,100.00
2023-04-10T15:27:42.265Z,100.00
2023-04-10T15:30:09.248Z,100.00
2023-04-10T15:32:37.851Z,100.00
2023-04-10T15:35:06.286Z,100.00
2023-04-10T15:37:35.540Z,100.00
2023-04-10T15:40:04.665Z,100.00
2023-04-10T15:42:31.529Z,100.00
2023-04-10T15:44:58.537Z,100.00
2023-04-10T15:47:25.514Z,100.00
2023-04-10T15:49:52.621Z,100.00
2023-04-10T15:52:19.533Z,100.00
2023-04-10T15:54:46.553Z,100.00
2023-04-10T15:57:13.274Z,100.00
2023-04-10T15:59:40.076Z,100.00
2023-04-10T16:02:06.960Z,100.00
2023-04-10T16:04:35.180Z,100.00
2023-04-10T16:07:02.069Z,100.00
2023-04-10T16:09:28.804Z,100.00
2023-04-10T16:11:56.319Z,100.00
2023-04-10T16:14:23.327Z,100.00
2023-04-10T16:16:51.232Z,100.00
2023-04-10T16:19:22.148Z,100.00
2023-04-10T16:21:49.090Z,100.00
2023-04-10T16:24:15.950Z,100.00
2023-04-10T16:26:42.639Z,100.00
2023-04-10T16:29:09.504Z,100.00
2023-04-10T16:31:36.304Z,100.00
2023-04-10T16:34:03.532Z,100.00
2023-04-10T16:36:31.469Z,100.00
2023-04-10T16:38:58.364Z,100.00
2023-04-10T16:41:25.306Z,100.00
2023-04-10T16:43:52.007Z,100.00
2023-04-10T16:46:18.968Z,100.00
2023-04-10T16:48:46.038Z,100.00
2023-04-10T16:51:17.476Z,100.00
2023-04-10T16:53:44.808Z,100.00
2023-04-10T16:56:11.749Z,100.00
2023-04-10T16:58:40.945Z,100.00
2023-04-10T17:01:18.323Z,100.00
2023-04-10T17:03:47.656Z,100.00
2023-04-10T17:06:16.076Z,100.00
2023-04-10T17:08:43.811Z,100.00
2023-04-10T17:11:12.857Z,100.00
2023-04-10T17:13:40.686Z,100.00
2023-04-10T17:16:08.562Z,100.00
2023-04-10T17:18:35.508Z,100.00
2023-04-10T17:21:02.356Z,100.00
2023-04-10T17:23:36.447Z,100.00
2023-04-10T17:26:06.023Z,100.00
2023-04-10T17:28:34.182Z,100.00
2023-04-10T17:31:01.750Z,100.00
2023-04-10T17:33:28.727Z,100.00
2023-04-10T17:35:55.750Z,100.00
2023-04-10T17:38:22.644Z,100.00
2023-04-10T17:40:52.628Z,100.00
2023-04-10T17:43:19.501Z,100.00
2023-04-10T17:45:46.287Z,100.00
2023-04-10T17:48:14.857Z,100.00
2023-04-10T17:50:41.672Z,100.00
2023-04-10T17:53:08.578Z,100.00
2023-04-10T17:55:40.261Z,100.00
2023-04-10T17:58:07.194Z,100.00
2023-04-10T18:00:37.200Z,100.00
2023-04-10T18:03:04.192Z,100.00
2023-04-10T18:05:31.220Z,100.00
2023-04-10T18:07:58.247Z,100.00
2023-04-10T18:10:24.994Z,100.00
2023-04-10T18:12:51.869Z,100.00
2023-04-10T18:15:19.699Z,100.00
2023-04-10T18:17:46.726Z,100.00
2023-04-10T18:20:14.865Z,100.00
2023-04-10T18:22:41.753Z,100.00
2023-04-10T18:25:08.859Z,100.00
2023-04-10T18:27:36.823Z,100.00
2023-04-10T18:30:03.734Z,100.00
2023-04-10T18:32:30.811Z,100.00
2023-04-10T18:34:57.562Z,100.00
2023-04-10T18:37:24.556Z,100.00
2023-04-10T18:39:51.326Z,100.00
2023-04-10T18:42:18.218Z,100.00
2023-04-10T18:44:45.208Z,100.00
2023-04-10T18:47:12.003Z,100.00
2023-04-10T18:49:38.829Z,100.00
2023-04-10T18:52:06.377Z,100.00
2023-04-10T18:54:36.573Z,100.00
2023-04-10T18:57:03.599Z,100.00
2023-04-10T18:59:31.981Z,100.00
2023-04-10T19:01:58.824Z,100.00
2023-04-10T19:04:25.772Z,100.00
2023-04-10T19:06:53.021Z,100.00
2023-04-10T19:09:19.836Z,100.00
2023-04-10T19:11:46.686Z,100.00
2023-04-10T19:14:13.550Z,100.00
2023-04-10T19:16:40.260Z,100.00
2023-04-10T19:19:07.407Z,100.00
2023-04-10T19:21:34.595Z,100.00
2023-04-10T19:24:01.362Z,100.00
2023-04-10T19:26:28.123Z,100.00
2023-04-10T19:28:55.110Z,100.00
2023-04-10T19:31:23.931Z,100.00
2023-04-10T19:33:51.013Z,100.00
2023-04-10T19:36:18.657Z,100.00
2023-04-10T19:38:48.681Z,100.00
2023-04-10T19:41:15.969Z,100.00
2023-04-10T19:43:44.276Z,100.00
2023-04-10T19:46:20.495Z,100.00
2023-04-10T19:48:47.597Z,100.00
2023-04-10T19:51:14.771Z,100.00
2023-04-10T19:53:42.396Z,100.00
2023-04-10T19:56:09.248Z,100.00
2023-04-10T19:58:41.153Z,100.00
2023-04-10T20:01:09.405Z,100.00
2023-04-10T20:03:38.067Z,100.00
2023-04-10T20:06:07.583Z,100.00
2023-04-10T20:08:35.798Z,100.00
2023-04-10T20:11:06.125Z,100.00
2023-04-10T20:13:36.524Z,100.00
2023-04-10T20:16:03.513Z,100.00
2023-04-10T20:18:31.604Z,100.00
2023-04-10T20:20:58.606Z,100.00
2023-04-10T20:23:25.633Z,100.00
2023-04-10T20:25:52.650Z,100.00
2023-04-10T20:28:19.528Z,100.00
2023-04-10T20:30:46.306Z,100.00
2023-04-10T20:45:40.817Z,100.00
2023-04-10T20:48:08.918Z,100.00
2023-04-10T20:50:37.063Z,100.00
2023-04-10T20:53:03.911Z,100.00
2023-04-10T20:55:31.057Z,100.00
2023-04-10T20:57:58.780Z,100.00
2023-04-10T21:00:26.201Z,100.00
2023-04-10T21:02:53.412Z,100.00
2023-04-10T21:05:20.236Z,100.00
2023-04-10T21:07:48.804Z,100.00
2023-04-10T21:10:15.963Z,100.00
2023-04-10T21:12:43.324Z,100.00
2023-04-10T21:15:10.651Z,100.00
2023-04-10T21:17:37.508Z,100.00
2023-04-10T21:20:04.380Z,100.00
2023-04-10T21:22:31.224Z,100.00
2023-04-10T21:24:58.024Z,100.00
2023-04-10T21:27:24.994Z,100.00
2023-04-10T21:29:52.261Z,100.00
2023-04-10T21:32:19.011Z,100.00
2023-04-10T21:34:45.824Z,100.00
2023-04-10T21:37:12.728Z,100.00
2023-04-10T21:39:41.187Z,100.00
2023-04-10T21:42:08.157Z,100.00
2023-04-10T21:44:35.245Z,100.00
2023-04-10T21:47:02.025Z,100.00
2023-04-10T21:49:28.978Z,100.00
2023-04-10T21:51:55.702Z,100.00
2023-04-10T21:54:22.457Z,100.00
2023-04-10T21:56:49.711Z,100.00
2023-04-10T21:59:16.492Z,100.00
2023-04-10T22:01:43.960Z,100.00
2023-04-10T22:04:12.398Z,100.00
2023-04-10T22:06:39.777Z,100.00
2023-04-10T22:09:06.733Z,100.00
2023-04-10T22:11:33.875Z,100.00
2023-04-10T22:14:12.710Z,100.00
2023-04-10T22:16:43.303Z,100.00
2023-04-10T22:19:10.068Z,100.00
2023-04-10T22:21:37.631Z,100.00
2023-04-10T22:24:04.556Z,100.00
2023-04-10T22:26:32.884Z,100.00
2023-04-10T22:28:59.775Z,100.00
2023-04-10T22:31:26.667Z,100.00
2023-04-10T22:33:53.463Z,100.00
2023-04-10T22:36:21.361Z,100.00
2023-04-10T22:38:48.070Z,100.00
2023-04-10T22:41:15.168Z,100.00
2023-04-10T22:43:42.318Z,100.00
2023-04-10T22:46:09.507Z,100.00
2023-04-10T22:48:36.442Z,100.00
2023-04-10T22:51:03.719Z,100.00
2023-04-10T22:53:30.840Z,100.00
2023-04-10T22:56:04.759Z,100.00
2023-04-10T22:58:31.872Z,100.00
2023-04-10T23:00:58.667Z,100.00
2023-04-10T23:03:25.662Z,100.00
2023-04-10T23:05:52.401Z,100.00
2023-04-10T23:08:19.194Z,100.00
2023-04-10T23:10:45.892Z,100.00
2023-04-10T23:13:12.729Z,100.00
2023-04-10T23:15:39.651Z,100.00
2023-04-10T23:18:06.567Z,100.00
2023-04-10T23:20:33.447Z,100.00
2023-04-10T23:23:00.163Z,100.00
2023-04-10T23:25:30.490Z,100.00
2023-04-10T23:27:58.021Z,100.00
2023-04-10T23:30:24.823Z,100.00
2023-04-10T23:32:51.797Z,100.00
2023-04-10T23:35:19.566Z,100.00
2023-04-10T23:37:46.550Z,100.00
2023-04-10T23:40:13.518Z,100.00
2023-04-10T23:42:41.569Z,100.00
2023-04-10T23:45:12.810Z,100.00
2023-04-10T23:47:42.857Z,100.00
2023-04-10T23:50:10.315Z,100.00
2023-04-10T23:52:36.980Z,100.00
2023-04-10T23:55:04.165Z,100.00
2023-04-10T23:57:33.162Z,100.00
